Time;durP1;ratioP1;P1;durP2;ratioP2;P2;SDS_P1;SDS_P2;PMS_P1;PMS_P2;Temp;Humidity;BMP_temperature;BMP_pressure;BME280_temperature;BME280_humidity;BME280_pressure;Samples;Min_cycle;Max_cycle;Signal;HPM_P1;HPM_P2
2021/12/20 00:01:13;;;;;;;19.27;12.48;;;;;;;5.71;73.46;100528.69;5003238;28;20033;-76
2021/12/20 00:03:39;;;;;;;18.70;11.85;;;;;;;5.68;73.89;100523.78;5002464;28;20056;-76
2021/12/20 00:09:42;;;;;;;16.05;12.13;;;;;;;5.60;74.31;100516.31;5012701;28;20089;-76
2021/12/20 00:12:11;;;;;;;16.42;10.98;;;;;;;5.58;74.63;100515.81;4997793;28;20042;-75
2021/12/20 00:14:37;;;;;;;17.55;12.02;;;;;;;5.68;74.79;100523.78;4998284;28;20380;-76
2021/12/20 00:20:28;;;;;;;16.00;12.13;;;;;;;5.74;74.56;100516.97;4997906;28;20054;-76
2021/12/20 00:22:56;;;;;;;19.83;13.93;;;;;;;5.89;74.43;100534.22;5017460;28;20484;-76
2021/12/20 00:25:22;;;;;;;17.33;12.55;;;;;;;5.88;74.13;100527.88;5001843;28;20044;-76
2021/12/20 00:28:28;;;;;;;17.92;12.00;;;;;;;5.83;73.97;100524.47;5001454;28;20038;-76
2021/12/20 00:30:53;;;;;;;12.85;9.88;;;;;;;5.79;74.42;100525.09;5018674;28;20062;-76
2021/12/20 00:37:05;;;;;;;13.00;9.90;;;;;;;5.75;74.45;100515.88;5018108;28;20038;-76
2021/12/20 00:46:26;;;;;;;14.30;9.65;;;;;;;5.83;74.92;100524.47;5018528;28;20158;-76
2021/12/20 00:48:52;;;;;;;13.65;10.73;;;;;;;5.84;74.68;100515.03;5001748;28;20041;-76
2021/12/20 00:51:39;;;;;;;12.30;10.52;;;;;;;5.86;74.33;100523.81;5001462;28;20030;-76
2021/12/20 00:54:04;;;;;;;13.55;11.02;;;;;;;5.86;74.98;100513.59;5001266;28;20029;-76
2021/12/20 00:56:33;;;;;;;13.98;10.55;;;;;;;5.92;74.70;100514.28;5002267;28;20049;-76
2021/12/20 00:59:10;;;;;;;12.15;10.23;;;;;;;5.90;74.57;100513.75;5001662;28;20041;-76
2021/12/20 01:01:41;;;;;;;14.98;10.57;;;;;;;5.90;74.70;100508.22;5002183;28;20041;-76
2021/12/20 01:04:08;;;;;;;10.75;9.43;;;;;;;5.83;74.64;100502.38;5001957;28;20121;-76
2021/12/20 01:06:42;;;;;;;12.23;10.15;;;;;;;5.90;75.17;100508.22;5001724;28;20026;-76
2021/12/20 01:09:15;;;;;;;12.93;10.40;;;;;;;5.85;74.67;100505.63;5002305;28;20029;-76
2021/12/20 01:11:42;;;;;;;12.77;10.07;;;;;;;5.82;75.07;100504.34;5002322;28;20168;-76
2021/12/20 01:14:21;;;;;;;11.05;9.45;;;;;;;5.83;74.73;100505.94;5000174;28;20045;-76
2021/12/20 01:16:50;;;;;;;13.38;9.52;;;;;;;5.82;74.69;100503.53;5002500;28;20033;-76
2021/12/20 01:19:50;;;;;;;14.57;10.27;;;;;;;5.81;74.63;100496.38;5003597;28;20086;-76
2021/12/20 01:22:19;;;;;;;13.10;9.80;;;;;;;5.77;75.10;100494.25;5002637;28;20056;-76
2021/12/20 01:24:45;;;;;;;16.48;9.52;;;;;;;5.76;75.04;100491.81;5002978;28;20388;-76
2021/12/20 01:27:23;;;;;;;9.65;8.65;;;;;;;5.76;75.29;100487.09;5002858;28;20059;-76
2021/12/20 01:29:50;;;;;;;14.27;9.18;;;;;;;5.83;75.48;100491.34;5018840;28;20030;-76
2021/12/20 01:32:51;;;;;;;11.90;9.15;;;;;;;5.62;75.64;100455.25;4998795;28;20041;-76
2021/12/20 01:35:18;;;;;;;10.88;9.07;;;;;;;5.73;75.50;100481.41;5003024;28;20129;-76
2021/12/20 01:40:38;;;;;;;11.52;8.52;;;;;;;5.73;75.37;100471.19;5018875;28;20485;-76
2021/12/20 01:43:10;;;;;;;11.68;8.60;;;;;;;5.86;74.66;100471.34;5003192;28;20046;-76
2021/12/20 01:45:42;;;;;;;10.48;7.60;;;;;;;5.83;75.33;100469.25;5021151;28;20022;-76
2021/12/20 01:48:13;;;;;;;8.50;6.70;;;;;;;5.82;75.24;100470.38;5003401;28;20373;-76
2021/12/20 01:54:08;;;;;;;11.87;7.57;;;;;;;5.94;74.65;100465.06;5020787;28;20041;-76
2021/12/20 02:00:11;;;;;;;7.65;6.50;;;;;;;5.83;74.96;100452.69;5020447;28;20042;-76
2021/12/20 02:02:42;;;;;;;10.73;7.78;;;;;;;5.87;74.88;100450.91;5021521;28;20025;-76
2021/12/20 02:09:18;;;;;;;8.85;7.13;;;;;;;5.86;74.18;100449.25;5020397;28;20038;-75
2021/12/20 02:11:47;;;;;;;8.45;6.60;;;;;;;5.86;74.68;100440.97;5004385;28;20088;-76
2021/12/20 02:14:17;;;;;;;8.40;6.57;;;;;;;5.86;74.53;100443.72;5003919;28;20165;-76
2021/12/20 02:17:00;;;;;;;7.63;5.90;;;;;;;5.83;74.38;100447.97;5004349;28;20093;-76
2021/12/20 02:19:28;;;;;;;8.93;6.55;;;;;;;5.84;74.24;100443.25;5004673;28;20060;-76
2021/12/20 02:21:54;;;;;;;14.27;7.55;;;;;;;5.85;74.29;100434.63;5002661;28;20115;-76
2021/12/20 02:24:23;;;;;;;9.27;6.05;;;;;;;5.85;74.19;100434.63;5002803;28;20100;-76
2021/12/20 02:26:49;;;;;;;6.78;6.00;;;;;;;5.87;73.91;100434.31;5020731;28;20177;-76
2021/12/20 02:29:16;;;;;;;9.40;7.55;;;;;;;5.84;73.36;100432.22;5003363;28;20026;-76
2021/12/20 02:41:24;;;;;;;9.68;8.05;;;;;;;5.81;73.66;100435.63;5016592;28;20041;-76
2021/12/20 02:43:56;;;;;;;10.20;7.43;;;;;;;5.51;72.95;100396.78;4999882;28;20037;-75
2021/12/20 02:47:08;;;;;;;9.93;8.07;;;;;;;5.72;73.96;100430.09;5000537;28;20034;-76
2021/12/20 02:49:41;;;;;;;14.75;8.80;;;;;;;5.71;73.17;100418.25;5000754;28;20029;-76
2021/12/20 02:52:23;;;;;;;8.48;7.55;;;;;;;5.76;73.37;100418.09;5000971;28;20369;-76
2021/12/20 02:54:48;;;;;;;10.23;8.27;;;;;;;5.70;73.07;100411.09;4999972;28;20045;-76
2021/12/20 02:57:14;;;;;;;13.75;8.27;;;;;;;5.76;73.03;100415.31;5001380;28;20041;-76
2021/12/20 03:00:06;;;;;;;12.85;8.90;;;;;;;5.74;73.31;100422.28;5000860;28;20069;-76
2021/12/20 03:02:35;;;;;;;10.23;8.20;;;;;;;5.78;73.19;100418.56;5018708;28;20036;-76
2021/12/20 03:05:02;;;;;;;9.40;7.60;;;;;;;5.70;73.52;100405.59;5000612;28;20026;-76
2021/12/20 03:07:57;;;;;;;9.25;8.25;;;;;;;5.73;73.30;100413.19;5018248;28;20037;-76
2021/12/20 03:10:29;;;;;;;10.73;7.85;;;;;;;5.69;74.15;100423.25;5000419;28;20070;-76
2021/12/20 03:12:56;;;;;;;12.25;8.20;;;;;;;5.75;74.10;100410.94;5000867;28;20527;-76
2021/12/20 03:15:25;;;;;;;12.40;7.68;;;;;;;5.66;74.42;100412.88;5017618;28;20070;-76
2021/12/20 03:17:55;;;;;;;10.32;7.18;;;;;;;5.79;74.35;100425.69;5018620;28;20029;-76
2021/12/20 03:23:52;;;;;;;8.75;7.05;;;;;;;5.66;74.96;100410.13;5016429;28;20108;-76
2021/12/20 03:26:17;;;;;;;9.05;7.00;;;;;;;5.61;74.82;100402.00;5000830;28;20037;-76
2021/12/20 03:28:51;;;;;;;8.82;7.18;;;;;;;5.67;74.78;100410.94;5000252;28;20445;-76
2021/12/20 03:31:18;;;;;;;8.60;7.28;;;;;;;5.66;75.02;100403.78;5000350;28;20088;-76
2021/12/20 03:33:44;;;;;;;9.23;7.38;;;;;;;5.68;75.41;100405.06;5001154;28;20495;-76
2021/12/20 03:36:56;;;;;;;8.52;7.28;;;;;;;5.67;75.22;100416.44;5000456;28;20018;-76
2021/12/20 03:39:24;;;;;;;9.80;7.95;;;;;;;5.71;75.41;100407.19;5000892;28;20040;-76
2021/12/20 03:41:56;;;;;;;10.60;8.15;;;;;;;5.71;75.38;100400.88;5019042;28;20117;-76
2021/12/20 03:44:25;;;;;;;12.85;7.93;;;;;;;5.68;75.72;100395.97;5002115;28;20030;-76
2021/12/20 03:47:08;;;;;;;10.77;7.72;;;;;;;5.74;75.34;100395.50;5002061;28;20053;-76
2021/12/20 03:49:40;;;;;;;10.18;7.55;;;;;;;5.77;75.77;100392.09;5001532;28;20088;-76
2021/12/20 03:52:07;;;;;;;9.77;7.63;;;;;;;5.75;75.49;100390.78;5001235;28;20029;-76
2021/12/20 04:01:33;;;;;;;10.38;7.75;;;;;;;5.66;75.27;100385.28;5023176;28;20033;-76
2021/12/20 04:04:02;;;;;;;10.57;7.70;;;;;;;5.68;75.11;100391.28;5005436;28;20069;-76
2021/12/20 04:06:28;;;;;;;9.82;7.97;;;;;;;5.73;74.81;100393.06;5003845;28;20069;-76
2021/12/20 04:09:17;;;;;;;8.82;7.93;;;;;;;5.74;75.19;100395.50;5004466;28;20034;-76
2021/12/20 04:11:48;;;;;;;11.82;9.15;;;;;;;5.78;75.05;100390.94;5021629;28;20041;-76
2021/12/20 04:14:20;;;;;;;13.43;8.98;;;;;;;5.53;74.24;100361.38;5004415;28;20030;-76
2021/12/20 04:16:56;;;;;;;12.68;9.95;;;;;;;5.75;74.06;100385.25;5006292;28;20033;-76
2021/12/20 04:20:03;;;;;;;11.00;7.93;;;;;;;5.74;74.78;100381.69;5005772;28;20022;-76
2021/12/20 04:22:29;;;;;;;10.40;8.73;;;;;;;5.76;73.31;100393.22;5003907;28;20108;-76
2021/12/20 04:24:57;;;;;;;12.95;9.45;;;;;;;5.73;73.97;100393.88;5004173;28;20030;-76
2021/12/20 04:27:27;;;;;;;11.43;8.75;;;;;;;5.65;73.76;100391.13;5004327;28;20030;-75
2021/12/20 04:29:59;;;;;;;16.02;9.15;;;;;;;5.61;73.53;100395.66;5005952;28;20116;-77
2021/12/20 04:32:29;;;;;;;11.27;8.63;;;;;;;5.64;74.00;100395.81;5005861;28;20380;-75
2021/12/20 04:34:58;;;;;;;10.13;7.80;;;;;;;5.54;73.83;100396.16;5004626;28;20121;-75
2021/12/20 04:41:13;;;;;;;9.18;8.25;;;;;;;5.49;74.10;100390.78;4963038;28;20103;-75
2021/12/20 04:43:39;;;;;;;14.85;8.63;;;;;;;5.44;74.17;100390.94;4962122;29;20028;-75
2021/12/20 04:46:08;;;;;;;12.40;10.40;;;;;;;5.46;74.74;100397.75;5015265;28;20060;-76
2021/12/20 04:49:23;;;;;;;14.52;10.60;;;;;;;5.44;74.32;100396.47;5003654;28;20036;-75
2021/12/20 04:51:57;;;;;;;13.63;8.75;;;;;;;5.43;74.88;100395.66;5020967;28;20026;-76
2021/12/20 04:54:23;;;;;;;10.50;8.40;;;;;;;5.48;74.72;100389.16;5003518;28;20029;-75
2021/12/20 04:56:52;;;;;;;13.35;8.38;;;;;;;5.40;74.60;100389.97;5003271;28;20030;-75
2021/12/20 04:59:18;;;;;;;9.25;8.15;;;;;;;5.44;75.08;100393.72;5003412;28;20025;-75
2021/12/20 05:01:46;;;;;;;9.68;8.35;;;;;;;5.52;74.76;100406.69;5004060;28;20060;-76
2021/12/20 05:04:11;;;;;;;10.13;8.65;;;;;;;5.47;75.18;100393.06;5003378;28;20022;-76
2021/12/20 05:06:39;;;;;;;12.02;8.18;;;;;;;5.43;75.12;100394.81;5003773;28;20388;-76
2021/12/20 05:09:10;;;;;;;8.55;7.63;;;;;;;5.55;75.29;100391.44;5003695;28;20030;-77
2021/12/20 05:11:50;;;;;;;10.07;7.35;;;;;;;5.54;75.89;100396.16;5005827;28;20037;-76
2021/12/20 05:15:01;;;;;;;10.23;7.72;;;;;;;5.68;75.04;100402.31;5002668;28;20191;-76
2021/12/20 05:17:26;;;;;;;9.93;8.38;;;;;;;5.50;75.31;100395.97;5000928;28;20045;-76
2021/12/20 05:19:55;;;;;;;9.60;7.45;;;;;;;5.44;76.25;100397.28;5000259;28;20357;-76
2021/12/20 05:22:20;;;;;;;10.05;8.00;;;;;;;5.39;75.83;100391.13;4999552;28;20072;-76
2021/12/20 05:24:49;;;;;;;12.82;7.82;;;;;;;5.40;76.50;100392.72;4980829;28;20485;-76
2021/12/20 05:27:45;;;;;;;10.43;8.00;;;;;;;5.37;76.54;100399.69;4980864;28;20033;-76
2021/12/20 05:30:14;;;;;;;11.50;7.63;;;;;;;5.45;76.60;100407.19;4980534;28;20030;-76
2021/12/20 05:32:40;;;;;;;11.73;8.13;;;;;;;5.37;76.97;100398.88;4980128;28;20038;-76
2021/12/20 05:35:17;;;;;;;10.10;8.48;;;;;;;5.39;76.69;100399.38;4996274;28;20096;-77
2021/12/20 05:37:45;;;;;;;10.25;8.52;;;;;;;5.43;77.48;100400.34;4981103;28;20085;-76
2021/12/20 05:40:16;;;;;;;10.90;7.93;;;;;;;5.34;77.40;100402.31;4980440;28;20026;-76
2021/12/20 05:42:42;;;;;;;10.07;8.13;;;;;;;5.32;77.51;100399.84;4980651;28;20092;-76
2021/12/20 05:45:09;;;;;;;10.95;8.38;;;;;;;5.32;77.05;100396.28;4980826;28;20034;-76
2021/12/20 05:48:09;;;;;;;9.88;7.88;;;;;;;5.35;77.30;100398.41;4981984;28;20040;-76
2021/12/20 05:50:38;;;;;;;13.27;8.85;;;;;;;5.28;77.10;100398.06;4980781;28;20033;-76
2021/12/20 05:53:15;;;;;;;11.18;8.40;;;;;;;5.25;77.34;100394.00;4997397;28;20041;-76
2021/12/20 05:55:41;;;;;;;8.82;7.75;;;;;;;5.21;76.93;100390.25;4981418;28;20354;-75
2021/12/20 05:58:09;;;;;;;10.30;9.18;;;;;;;5.18;77.31;100402.75;4980891;28;20030;-76
2021/12/20 06:01:08;;;;;;;10.23;7.85;;;;;;;5.30;77.20;100404.06;4996732;28;20063;-76
2021/12/20 06:03:34;;;;;;;16.35;10.05;;;;;;;5.28;77.61;100407.16;4980798;28;20058;-75
2021/12/20 06:06:36;;;;;;;13.75;11.35;;;;;;;5.26;77.57;100401.94;4981233;28;20448;-76
2021/12/20 06:09:04;;;;;;;17.95;12.38;;;;;;;5.18;77.64;100407.47;4976508;28;20046;-76
2021/12/20 06:11:32;;;;;;;18.55;12.38;;;;;;;5.05;78.38;100411.97;4980427;28;20041;-76
2021/12/20 06:17:30;;;;;;;14.15;11.57;;;;;;;5.03;78.96;100408.72;4997398;28;20041;-76
2021/12/20 06:19:58;;;;;;;14.50;12.30;;;;;;;5.05;79.28;100406.44;4980697;28;20081;-76
2021/12/20 06:22:24;;;;;;;15.90;11.77;;;;;;;4.99;79.01;100407.72;4996888;28;20029;-76
2021/12/20 06:24:55;;;;;;;14.45;11.02;;;;;;;4.99;79.28;100400.25;4994815;28;20058;-76
2021/12/20 06:27:44;;;;;;;17.20;12.15;;;;;;;4.99;78.85;100414.06;5011871;28;20089;-76
2021/12/20 06:30:11;;;;;;;13.73;10.95;;;;;;;5.02;79.52;100406.28;4996596;28;20476;-76
2021/12/20 06:35:53;;;;;;;15.07;11.98;;;;;;;5.07;79.29;100401.44;4997630;28;20038;-76
2021/12/20 06:38:22;;;;;;;12.48;10.15;;;;;;;5.37;79.16;100407.16;4997809;28;20073;-77
2021/12/20 06:40:50;;;;;;;20.23;12.43;;;;;;;5.85;77.50;100406.22;4998118;28;20030;-77
2021/12/20 06:44:16;;;;;;;18.80;12.98;;;;;;;6.37;75.63;100403.41;4999719;28;20078;-77
2021/12/20 06:46:44;;;;;;;16.85;12.48;;;;;;;6.94;72.64;100405.81;4996542;28;20085;-77
2021/12/20 06:49:12;;;;;;;16.90;13.63;;;;;;;7.21;70.04;100397.03;4996140;28;20038;-77
2021/12/20 06:55:22;;;;;;;15.85;10.73;;;;;;;8.21;65.83;100395.22;4996935;28;20049;-77
2021/12/20 06:57:54;;;;;;;13.82;10.07;;;;;;;8.63;64.42;100387.63;4997148;28;20068;-77
2021/12/20 07:00:42;;;;;;;14.48;10.45;;;;;;;9.07;61.93;100392.59;4999337;28;20121;-77
2021/12/20 07:03:14;;;;;;;13.55;9.20;;;;;;;9.42;60.71;100393.69;5015927;28;20038;-74
2021/12/20 07:12:23;;;;;;;10.23;7.90;;;;;;;10.03;58.74;100401.06;4940696;29;20438;-77
2021/12/20 07:14:52;;;;;;;9.82;7.45;;;;;;;10.38;57.63;100406.81;4938405;29;20039;-77
2021/12/20 07:17:21;;;;;;;12.25;9.05;;;;;;;10.95;57.53;100402.75;4920966;29;20035;-75
2021/12/20 07:19:50;;;;;;;10.38;8.20;;;;;;;11.04;56.25;100404.53;4959348;28;20057;-74
2021/12/20 07:22:20;;;;;;;10.30;7.15;;;;;;;11.14;55.15;100395.66;4978853;28;20113;-75
2021/12/20 07:24:49;;;;;;;9.85;7.93;;;;;;;11.53;55.03;100405.69;5013387;28;20492;-75
2021/12/20 07:27:21;;;;;;;11.15;8.90;;;;;;;11.38;54.38;100403.75;4998003;28;20025;-75
2021/12/20 07:29:49;;;;;;;10.77;7.93;;;;;;;11.92;53.61;100411.34;4999057;28;20524;-74
2021/12/20 07:32:25;;;;;;;19.80;16.92;;;;;;;12.24;51.61;100406.41;4999335;28;20121;-76
2021/12/20 07:34:53;;;;;;;17.13;12.13;;;;;;;12.40;51.42;100408.31;5002166;28;20544;-78
2021/12/20 07:37:25;;;;;;;13.82;12.27;;;;;;;12.95;51.31;100412.50;5001218;28;20503;-77
2021/12/20 07:39:56;;;;;;;12.23;9.95;;;;;;;13.38;50.41;100424.38;5001639;28;20124;-77
2021/12/20 07:42:27;;;;;;;16.42;11.90;;;;;;;13.45;49.66;100413.31;5001239;28;20030;-76
2021/12/20 07:44:56;;;;;;;14.93;10.13;;;;;;;13.77;49.18;100418.56;5003172;28;20034;-76
2021/12/20 07:47:32;;;;;;;10.75;8.93;;;;;;;13.98;48.65;100416.03;5008038;28;20030;-78
2021/12/20 07:50:00;;;;;;;12.07;9.23;;;;;;;13.73;47.17;100414.91;5005198;28;20065;-79
2021/12/20 07:52:32;;;;;;;15.07;11.75;;;;;;;13.19;47.88;100416.88;5005859;28;20026;-78
2021/12/20 07:54:59;;;;;;;23.52;17.00;;;;;;;13.01;49.90;100411.00;4999600;28;20041;-77
2021/12/20 07:57:25;;;;;;;14.10;11.48;;;;;;;13.21;49.82;100422.94;5006026;28;20029;-76
2021/12/20 08:00:32;;;;;;;11.65;9.40;;;;;;;13.74;48.91;100427.69;5005667;28;20034;-77
2021/12/20 08:02:58;;;;;;;12.05;9.90;;;;;;;13.45;48.78;100424.50;5007420;28;20034;-78
2021/12/20 08:05:27;;;;;;;14.75;10.70;;;;;;;13.57;48.42;100426.25;5007064;28;20044;-77
2021/12/20 08:07:53;;;;;;;15.82;10.82;;;;;;;13.90;48.55;100411.53;5003495;28;20022;-77
2021/12/20 08:13:12;;;;;;;15.32;11.63;;;;;;;14.13;48.89;100415.03;5021001;28;20539;-79
2021/12/20 08:15:38;;;;;;;14.07;10.52;;;;;;;14.42;46.30;100409.75;5017502;28;20029;-77
2021/12/20 08:18:09;;;;;;;12.15;9.52;;;;;;;14.37;47.30;100415.69;4998802;28;20091;-81
2021/12/20 08:20:38;;;;;;;14.00;10.40;;;;;;;14.32;47.97;100416.84;5000867;28;20052;-78
2021/12/20 08:23:04;;;;;;;13.23;10.00;;;;;;;14.41;48.51;100410.94;5000494;28;20077;-77
2021/12/20 08:25:30;;;;;;;15.80;10.32;;;;;;;14.18;49.42;100405.50;5000520;28;20038;-78
2021/12/20 08:27:57;;;;;;;20.35;12.07;;;;;;;14.13;49.96;100411.44;5002227;28;20036;-76
2021/12/20 08:30:22;;;;;;;23.85;13.13;;;;;;;14.37;48.86;100422.09;4988341;28;20484;-77
2021/12/20 08:33:18;;;;;;;22.95;13.75;;;;;;;14.12;49.59;100416.22;5004562;28;20080;-77
2021/12/20 08:35:49;;;;;;;31.73;20.95;;;;;;;14.11;50.34;100420.22;5004724;28;20022;-77
2021/12/20 08:38:18;;;;;;;24.77;15.75;;;;;;;13.95;49.91;100419.59;5003515;28;20029;-76
2021/12/20 08:44:21;;;;;;;20.90;12.02;;;;;;;14.13;50.48;100420.63;5019741;28;20045;-76
2021/12/20 08:46:53;;;;;;;19.60;11.43;;;;;;;14.25;49.85;100427.16;5006852;28;20048;-76
2021/12/20 08:49:19;;;;;;;21.30;13.80;;;;;;;14.41;49.56;100425.75;5008012;28;20161;-76
2021/12/20 08:51:58;;;;;;;17.38;12.65;;;;;;;14.47;50.26;100426.22;5004016;28;20030;-75
2021/12/20 08:54:27;;;;;;;13.82;11.77;;;;;;;14.17;49.50;100423.47;5003602;28;20041;-76
2021/12/20 08:56:53;;;;;;;15.90;11.65;;;;;;;14.51;50.27;100432.69;5020590;28;20350;-75
2021/12/20 09:02:53;;;;;;;16.48;12.40;;;;;;;14.09;50.87;100447.75;5019849;28;20041;-75
2021/12/20 09:05:24;;;;;;;18.95;12.70;;;;;;;13.66;52.34;100437.19;5003027;28;20033;-75
2021/12/20 09:08:42;;;;;;;12.63;10.68;;;;;;;13.82;51.90;100438.59;5021335;28;20038;-76
2021/12/20 09:11:09;;;;;;;13.93;12.35;;;;;;;13.99;52.53;100440.03;5003651;28;20345;-75
2021/12/20 09:13:37;;;;;;;12.60;10.20;;;;;;;14.45;50.44;100430.59;5001814;28;20033;-75
2021/12/20 09:16:10;;;;;;;18.23;10.85;;;;;;;14.77;50.72;100436.56;5002676;28;20057;-75
2021/12/20 09:18:38;;;;;;;12.85;9.10;;;;;;;15.05;49.73;100425.59;5003123;28;20029;-75
2021/12/20 09:21:10;;;;;;;9.38;7.72;;;;;;;15.45;47.20;100441.53;5001441;28;20033;-75
2021/12/20 09:23:36;;;;;;;15.85;8.43;;;;;;;15.74;46.52;100432.53;5001534;28;20132;-75
2021/12/20 09:26:05;;;;;;;9.45;6.80;;;;;;;15.83;45.74;100430.19;5018276;28;20072;-75
2021/12/20 09:28:34;;;;;;;7.82;6.72;;;;;;;15.74;44.63;100426.91;5002068;28;20384;-80
2021/12/20 09:31:00;;;;;;;10.40;7.00;;;;;;;16.09;44.08;100426.31;5006408;28;20404;-80
2021/12/20 09:33:26;;;;;;;9.05;5.97;;;;;;;16.07;45.10;100435.09;5002065;28;20032;-84
2021/12/20 09:35:53;;;;;;;6.28;5.63;;;;;;;15.91;44.39;100417.78;5000528;28;20128;-84
2021/12/20 09:38:20;;;;;;;9.77;4.45;;;;;;;16.32;41.61;100423.16;5003708;28;20030;-83
2021/12/20 09:43:40;;;;;;;5.85;3.80;;;;;;;16.58;40.62;100420.03;5023871;28;20048;-80
2021/12/20 09:46:06;;;;;;;5.63;3.90;;;;;;;16.60;39.16;100412.00;5001541;28;20117;-84
2021/12/20 09:48:34;;;;;;;8.60;3.17;;;;;;;16.44;39.83;100414.38;5019607;28;20030;-81
2021/12/20 09:51:04;;;;;;;2.45;2.25;;;;;;;16.13;39.44;100405.44;5015908;28;20014;-78
2021/12/20 09:53:31;;;;;;;9.57;2.65;;;;;;;16.51;39.53;100408.75;5022446;28;20025;-80
2021/12/20 09:56:00;;;;;;;3.67;2.50;;;;;;;16.53;40.13;100400.75;5017671;28;20070;-79
2021/12/20 09:58:27;;;;;;;6.05;2.70;;;;;;;16.57;39.53;100401.59;5021081;28;20034;-78
2021/12/20 10:00:55;;;;;;;5.47;2.75;;;;;;;16.24;39.91;100397.91;5018706;28;20040;-78
2021/12/20 10:03:23;;;;;;;3.00;2.55;;;;;;;15.70;42.04;100394.03;5021648;28;20029;-79
2021/12/20 10:05:54;;;;;;;3.72;2.28;;;;;;;15.65;40.99;100388.00;5038161;28;20034;-77
2021/12/20 10:08:40;;;;;;;2.45;2.25;;;;;;;16.09;40.90;100381.41;5022676;28;20045;-79
2021/12/20 10:11:20;;;;;;;2.38;2.17;;;;;;;16.05;39.13;100398.22;5021380;28;20018;-78
2021/12/20 10:13:49;;;;;;;4.50;2.95;;;;;;;16.33;38.80;100391.06;5020476;28;20014;-77
2021/12/20 10:16:22;;;;;;;3.30;3.00;;;;;;;16.24;39.74;100395.09;5021555;28;20034;-77
2021/12/20 10:18:49;;;;;;;5.93;3.95;;;;;;;16.09;40.71;100390.63;5021542;28;20018;-78
2021/12/20 10:21:16;;;;;;;6.07;4.22;;;;;;;16.51;40.60;100383.50;5021280;28;20018;-78
2021/12/20 10:23:46;;;;;;;4.75;2.70;;;;;;;16.34;41.50;100398.28;5019943;28;20041;-77
2021/12/20 10:26:18;;;;;;;5.25;3.50;;;;;;;16.55;41.36;100392.72;5036164;28;20046;-77
2021/12/20 10:28:47;;;;;;;3.58;2.95;;;;;;;16.54;41.93;100391.13;5034052;28;20026;-75
2021/12/20 10:31:21;;;;;;;4.70;2.78;;;;;;;16.53;41.92;100383.91;5004668;28;20034;-78
2021/12/20 10:34:02;;;;;;;4.70;3.17;;;;;;;16.39;43.11;100389.50;5010036;28;20034;-76
2021/12/20 10:36:31;;;;;;;4.88;2.85;;;;;;;16.11;44.09;100378.97;5017161;28;20117;-77
2021/12/20 10:39:00;;;;;;;3.83;3.13;;;;;;;16.30;43.94;100383.44;5032625;28;20069;-77
2021/12/20 10:41:36;;;;;;;4.93;2.53;;;;;;;16.32;44.25;100381.84;5012611;28;20025;-77
2021/12/20 10:44:18;;;;;;;4.00;2.78;;;;;;;16.55;44.08;100384.31;5035713;28;20033;-79
2021/12/20 10:47:01;;;;;;;2.88;2.55;;;;;;;16.76;44.27;100387.16;5028019;28;20049;-81
2021/12/20 10:49:33;;;;;;;6.50;3.03;;;;;;;16.94;43.37;100392.03;4998608;28;20053;-82
2021/12/20 10:52:05;;;;;;;3.20;2.90;;;;;;;16.93;43.52;100381.97;5016354;28;20400;-82
2021/12/20 10:54:45;;;;;;;3.92;3.13;;;;;;;17.03;43.34;100383.97;5031655;28;20034;-79
2021/12/20 10:57:28;;;;;;;6.28;3.40;;;;;;;16.80;43.95;100384.38;5006287;28;20037;-78
2021/12/20 11:00:22;;;;;;;4.47;3.35;;;;;;;16.94;43.03;100394.84;5034213;28;20085;-77
2021/12/20 11:03:24;;;;;;;4.28;2.83;;;;;;;16.74;43.55;100378.34;5024745;28;20026;-79
2021/12/20 11:06:59;;;;;;;4.05;2.70;;;;;;;16.47;44.78;100386.31;5010510;28;20037;-78
2021/12/20 11:09:05;;;;;;;4.18;2.97;;;;;;;16.86;44.35;100381.97;5016638;28;20041;-78
2021/12/20 11:11:35;;;;;;;4.75;3.25;;;;;;;16.46;44.83;100379.09;5010198;28;20068;-77
2021/12/20 11:14:02;;;;;;;7.40;3.25;;;;;;;16.35;45.56;100372.66;5016216;28;20110;-77
2021/12/20 11:16:45;;;;;;;8.02;5.53;;;;;;;16.02;45.87;100353.28;5015100;28;20022;-78
2021/12/20 11:19:21;;;;;;;5.47;4.40;;;;;;;16.48;44.49;100370.25;5014108;28;20018;-79
2021/12/20 11:21:55;;;;;;;6.10;3.78;;;;;;;16.84;44.40;100375.97;5015414;28;20060;-77
2021/12/20 11:24:27;;;;;;;;;;;;;;;16.78;45.02;100369.94;4997678;28;20575;-80
2021/12/20 11:26:57;;;;;;;3.95;3.25;;;;;;;16.55;45.68;100375.88;5001534;28;19964;-77
2021/12/20 11:29:27;;;;;;;3.42;2.95;;;;;;;16.55;44.92;100380.69;5012495;28;20038;-78
2021/12/20 11:32:00;;;;;;;5.32;2.90;;;;;;;16.54;45.05;100362.25;5011139;28;20030;-77
2021/12/20 11:34:29;;;;;;;;;;;;;;;16.30;45.21;100363.78;5014185;28;20025;-77
2021/12/20 11:36:58;;;;;;;3.95;3.13;;;;;;;16.32;45.73;100364.22;5013447;28;19917;-77
2021/12/20 11:39:26;;;;;;;4.53;3.38;;;;;;;16.48;45.44;100368.25;5009879;28;20096;-78
2021/12/20 11:41:53;;;;;;;4.35;3.10;;;;;;;16.20;45.29;100366.19;5001767;28;20123;-79
2021/12/20 11:44:21;;;;;;;5.38;3.28;;;;;;;16.74;45.07;100367.13;4996261;28;20444;-78
2021/12/20 11:47:06;;;;;;;10.85;7.22;;;;;;;16.33;46.34;100361.00;4998812;28;20040;-81
2021/12/20 11:49:35;;;;;;;9.93;7.20;;;;;;;16.26;46.24;100351.75;5008349;28;20023;-77
2021/12/20 11:52:16;;;;;;;9.30;6.18;;;;;;;16.53;45.45;100355.81;4994741;28;20093;-79
2021/12/20 11:55:23;;;;;;;6.35;4.88;;;;;;;16.63;46.03;100357.84;4995220;28;20461;-81
2021/12/20 11:58:02;;;;;;;6.68;4.85;;;;;;;16.64;46.90;100351.03;4997662;28;20096;-82
2021/12/20 12:00:31;;;;;;;8.50;4.93;;;;;;;16.46;46.85;100350.22;5002043;28;20117;-80
2021/12/20 12:03:16;;;;;;;8.63;5.65;;;;;;;16.48;45.99;100347.78;4994866;28;20030;-79
2021/12/20 12:06:10;;;;;;;6.05;4.15;;;;;;;16.34;46.61;100336.53;4993323;28;20026;-82
2021/12/20 12:08:48;;;;;;;12.52;3.80;;;;;;;16.67;46.62;100344.63;4986083;28;20045;-84
2021/12/20 12:11:17;;;;;;;3.95;3.55;;;;;;;16.41;46.95;100342.16;4994752;28;20381;-83
2021/12/20 12:13:51;;;;;;;5.40;3.35;;;;;;;16.39;47.35;100336.13;4993027;28;20415;-85
2021/12/20 12:16:39;;;;;;;4.07;3.67;;;;;;;16.57;47.15;100333.38;4992955;28;20026;-79
2021/12/20 12:19:09;;;;;;;4.68;3.00;;;;;;;16.49;47.27;100326.94;4995807;28;20042;-78
2021/12/20 12:21:39;;;;;;;6.00;3.13;;;;;;;15.71;50.10;100333.94;4999720;28;20033;-80
2021/12/20 12:24:14;;;;;;;5.75;3.05;;;;;;;15.39;50.13;100304.91;5007349;28;20050;-76
2021/12/20 12:26:49;;;;;;;4.03;2.78;;;;;;;15.20;50.67;100332.03;5020953;28;20034;-76
2021/12/20 12:29:23;;;;;;;4.28;3.03;;;;;;;15.33;51.19;100324.09;5018378;28;20101;-77
2021/12/20 12:31:57;;;;;;;3.47;3.10;;;;;;;15.42;50.61;100326.56;5017225;28;20124;-81
2021/12/20 12:34:44;;;;;;;5.18;3.05;;;;;;;15.73;50.09;100324.31;5016304;28;20487;-77
2021/12/20 12:37:27;;;;;;;4.70;3.88;;;;;;;15.82;49.58;100327.56;5037315;28;20046;-79
2021/12/20 12:40:23;;;;;;;6.95;3.47;;;;;;;15.67;49.21;100321.91;5010255;28;20076;-80
2021/12/20 12:42:54;;;;;;;3.50;2.75;;;;;;;15.76;49.44;100317.91;5002213;28;20026;-82
2021/12/20 12:45:56;;;;;;;4.03;3.33;;;;;;;15.27;50.33;100308.84;5001836;28;20112;-82
2021/12/20 12:48:35;;;;;;;4.32;3.65;;;;;;;14.92;51.73;100287.00;4989975;28;20038;-84
2021/12/20 12:51:19;;;;;;;6.53;4.00;;;;;;;15.24;51.55;100308.84;4999176;28;20034;-84
2021/12/20 12:53:55;;;;;;;;;;;;;;;15.17;51.74;100309.56;5003704;28;20030;-83
2021/12/20 12:56:27;;;;;;;5.30;3.10;;;;;;;15.15;51.41;100300.78;5003789;28;20000;-82
2021/12/20 12:59:11;;;;;;;5.15;3.55;;;;;;;15.35;51.53;100298.50;5003233;28;20030;-80
2021/12/20 13:01:47;;;;;;;;;;;;;;;15.55;50.19;100302.56;5002218;28;20121;-84
2021/12/20 13:04:35;;;;;;;8.85;3.65;;;;;;;15.44;50.95;100304.53;5000121;28;19909;-82
2021/12/20 13:07:04;;;;;;;15.27;4.75;;;;;;;15.35;51.11;100301.28;5020606;28;20042;-80
2021/12/20 13:09:32;;;;;;;10.05;4.78;;;;;;;15.38;49.53;100308.91;5015183;28;20195;-79
2021/12/20 13:12:18;;;;;;;7.55;4.32;;;;;;;15.20;49.75;100306.81;5004937;28;20168;-81
2021/12/20 13:15:02;;;;;;;6.15;3.85;;;;;;;15.40;48.88;100300.91;5012805;28;20026;-76
2021/12/20 13:17:39;;;;;;;14.07;8.82;;;;;;;15.13;48.37;100303.16;5017863;28;20116;-81
2021/12/20 13:23:05;;;;;;;6.95;4.60;;;;;;;15.06;48.87;100303.91;5018156;28;20045;-82